createdAt,value
2018-01-11T00:00:16.526Z,1018.43
2018-01-11T00:01:43.850Z,1018.45
2018-01-11T00:03:11.106Z,1018.48
2018-01-11T00:04:38.852Z,1018.48
2018-01-11T00:06:05.375Z,1018.47
2018-01-11T00:07:32.413Z,1018.47
2018-01-11T00:08:59.808Z,1018.47
2018-01-11T00:10:26.692Z,1018.48
2018-01-11T00:11:53.904Z,1018.47
2018-01-11T00:13:20.960Z,1018.48
2018-01-11T00:14:48.181Z,1018.49
2018-01-11T00:16:15.336Z,1018.51
2018-01-11T00:17:42.320Z,1018.50
2018-01-11T00:19:10.192Z,1018.55
2018-01-11T00:20:36.574Z,1018.54
2018-01-11T00:22:03.878Z,1018.52
2018-01-11T00:23:30.995Z,1018.52
2018-01-11T00:24:58.426Z,1018.55
2018-01-11T00:26:25.284Z,1018.57
2018-01-11T00:27:52.235Z,1018.53
2018-01-11T00:29:19.063Z,1018.55
2018-01-11T00:30:46.222Z,1018.56
2018-01-11T00:32:13.377Z,1018.58
2018-01-11T00:33:40.709Z,1018.63
2018-01-11T00:35:07.899Z,1018.65
2018-01-11T00:36:34.866Z,1018.66
2018-01-11T00:38:02.101Z,1018.69
2018-01-11T00:39:29.427Z,1018.69
2018-01-11T00:40:56.666Z,1018.69
2018-01-11T00:42:23.645Z,1018.70
2018-01-11T00:43:50.494Z,1018.69
2018-01-11T00:45:17.539Z,1018.69
2018-01-11T00:46:44.778Z,1018.69
2018-01-11T00:48:11.966Z,1018.68
2018-01-11T00:49:39.490Z,1018.69
2018-01-11T00:51:06.412Z,1018.67
2018-01-11T00:52:33.348Z,1018.66
2018-01-11T00:54:00.537Z,1018.68
2018-01-11T00:55:27.980Z,1018.69
2018-01-11T00:56:55.127Z,1018.68
2018-01-11T00:58:22.240Z,1018.65
2018-01-11T00:59:49.125Z,1018.66
2018-01-11T01:01:16.321Z,1018.66
2018-01-11T01:02:43.556Z,1018.69
2018-01-11T01:04:10.861Z,1018.71
2018-01-11T01:05:37.792Z,1018.70
2018-01-11T01:07:04.841Z,1018.70
2018-01-11T01:08:31.934Z,1018.70
2018-01-11T01:09:59.418Z,1018.68
2018-01-11T01:11:26.338Z,1018.69
2018-01-11T01:12:53.316Z,1018.73
2018-01-11T01:14:20.552Z,1018.72
2018-01-11T01:15:47.562Z,1018.74
2018-01-11T01:17:14.823Z,1018.74
2018-01-11T01:18:42.079Z,1018.73
2018-01-11T01:20:09.287Z,1018.77
2018-01-11T01:21:36.554Z,1018.79
2018-01-11T01:23:03.738Z,1018.79
2018-01-11T01:24:30.857Z,1018.81
2018-01-11T01:25:58.123Z,1018.84
2018-01-11T01:27:25.073Z,1018.85
2018-01-11T01:28:52.153Z,1018.84
2018-01-11T01:30:19.162Z,1018.86
2018-01-11T01:31:46.060Z,1018.88
2018-01-11T01:33:13.691Z,1018.90
2018-01-11T01:34:40.659Z,1018.92
2018-01-11T01:36:07.834Z,1018.93
2018-01-11T01:37:34.955Z,1018.94
2018-01-11T01:39:02.157Z,1018.97
2018-01-11T01:40:29.130Z,1018.94
2018-01-11T01:41:56.514Z,1018.94
2018-01-11T01:43:23.397Z,1018.94
2018-01-11T01:44:50.673Z,1018.95
2018-01-11T01:46:17.758Z,1018.95
2018-01-11T01:47:44.851Z,1018.95
2018-01-11T01:49:12.018Z,1018.95
2018-01-11T01:50:39.466Z,1018.97
2018-01-11T01:52:06.269Z,1018.97
2018-01-11T01:53:33.200Z,1018.96
2018-01-11T01:55:00.574Z,1019.01
2018-01-11T01:56:27.823Z,1019.01
2018-01-11T01:57:54.866Z,1019.04
2018-01-11T01:59:22.040Z,1019.02
2018-01-11T02:00:49.210Z,1019.02
2018-01-11T02:02:16.283Z,1019.02
2018-01-11T02:03:43.850Z,1019.02
2018-01-11T02:05:11.212Z,1019.01
2018-01-11T02:06:38.240Z,1019.03
2018-01-11T02:08:05.030Z,1019.02
2018-01-11T02:09:32.344Z,1019.02
2018-01-11T02:10:59.435Z,1019.03
2018-01-11T02:12:26.784Z,1019.06
2018-01-11T02:13:53.622Z,1019.07
2018-01-11T02:15:20.543Z,1019.09
2018-01-11T02:16:47.591Z,1019.10
2018-01-11T02:18:14.388Z,1019.10
2018-01-11T02:19:41.617Z,1019.10
2018-01-11T02:21:09.118Z,1019.12
2018-01-11T02:22:35.900Z,1019.13
2018-01-11T02:24:02.791Z,1019.15
2018-01-11T02:25:29.952Z,1019.15
2018-01-11T02:26:57.326Z,1019.22
2018-01-11T02:28:24.306Z,1019.22
2018-01-11T02:29:51.457Z,1019.23
2018-01-11T02:31:18.615Z,1019.26
2018-01-11T02:32:45.655Z,1019.27
2018-01-11T02:34:13.197Z,1019.26
2018-01-11T02:35:40.326Z,1019.26
2018-01-11T02:37:07.915Z,1019.20
2018-01-11T02:38:34.478Z,1019.15
2018-01-11T02:40:01.816Z,1019.12
2018-01-11T02:41:29.027Z,1019.12
2018-01-11T02:42:56.117Z,1019.13
2018-01-11T02:44:23.033Z,1019.06
2018-01-11T02:45:50.443Z,1019.06
2018-01-11T02:47:17.405Z,1019.01
2018-01-11T02:48:44.865Z,1018.98
2018-01-11T02:50:17.997Z,1019.02
2018-01-11T02:51:39.469Z,1019.00
2018-01-11T02:53:06.830Z,1019.00
2018-01-11T02:54:33.592Z,1019.00
2018-01-11T02:56:00.707Z,1019.02
2018-01-11T02:57:27.917Z,1019.03
2018-01-11T02:58:55.178Z,1019.05
2018-01-11T03:00:22.049Z,1019.09
2018-01-11T03:01:49.303Z,1019.13
2018-01-11T03:03:16.031Z,1019.11
2018-01-11T03:04:43.272Z,1019.10
2018-01-11T03:06:13.681Z,1019.09
2018-01-11T03:07:37.778Z,1019.10
2018-01-11T03:09:04.728Z,1019.14
2018-01-11T03:10:31.740Z,1019.14
2018-01-11T03:11:59.016Z,1019.15
2018-01-11T03:13:26.292Z,1019.17
2018-01-11T03:14:53.417Z,1019.18
2018-01-11T03:16:20.611Z,1019.20
2018-01-11T03:17:47.730Z,1019.23
2018-01-11T03:19:14.709Z,1019.23
2018-01-11T03:20:42.121Z,1019.23
2018-01-11T03:22:09.319Z,1019.23
2018-01-11T03:23:36.859Z,1019.22
2018-01-11T03:25:03.526Z,1019.22
2018-01-11T03:26:30.729Z,1019.22
2018-01-11T03:27:57.853Z,1019.21
2018-01-11T03:29:25.172Z,1019.19
2018-01-11T03:30:52.364Z,1019.17
2018-01-11T03:32:19.080Z,1019.22
2018-01-11T03:33:46.203Z,1019.24
2018-01-11T03:35:13.335Z,1019.24
2018-01-11T03:36:40.659Z,1019.26
2018-01-11T03:38:08.300Z,1019.29
2018-01-11T03:39:34.702Z,1019.28
2018-01-11T03:41:01.997Z,1019.29
2018-01-11T03:42:29.198Z,1019.31
2018-01-11T03:43:56.569Z,1019.27
2018-01-11T03:45:23.581Z,1019.26
2018-01-11T03:46:50.637Z,1019.22
2018-01-11T03:48:17.886Z,1019.18
2018-01-11T03:49:44.888Z,1019.19
2018-01-11T03:51:12.274Z,1019.19
2018-01-11T03:52:40.019Z,1019.20
2018-01-11T03:54:06.637Z,1019.17
2018-01-11T03:55:33.683Z,1019.17
2018-01-11T03:57:00.795Z,1019.12
2018-01-11T03:58:28.149Z,1019.09
2018-01-11T03:59:55.313Z,1019.08
2018-01-11T04:01:22.509Z,1019.07
2018-01-11T04:02:49.637Z,1019.11
2018-01-11T04:04:16.740Z,1019.11
2018-01-11T04:05:43.810Z,1019.12
2018-01-11T04:07:11.135Z,1019.14
2018-01-11T04:08:38.245Z,1019.14
2018-01-11T04:10:06.330Z,1019.15
2018-01-11T04:11:32.560Z,1019.17
2018-01-11T04:12:59.774Z,1019.18
2018-01-11T04:14:27.003Z,1019.20
2018-01-11T04:15:54.096Z,1019.20
2018-01-11T04:17:21.130Z,1019.19
2018-01-11T04:18:48.201Z,1019.19
2018-01-11T04:20:15.321Z,1019.20
2018-01-11T04:21:42.610Z,1019.19
2018-01-11T04:23:09.756Z,1019.20
2018-01-11T04:24:39.767Z,1019.18
2018-01-11T04:26:04.044Z,1019.20
2018-01-11T04:27:31.184Z,1019.20
2018-01-11T04:28:58.309Z,1019.18
2018-01-11T04:30:25.588Z,1019.18
2018-01-11T04:31:52.650Z,1019.19
2018-01-11T04:33:19.980Z,1019.15
2018-01-11T04:34:47.154Z,1019.19
2018-01-11T04:36:14.436Z,1019.20
2018-01-11T04:37:41.586Z,1019.21
2018-01-11T04:39:08.827Z,1019.20
2018-01-11T04:40:36.108Z,1019.19
2018-01-11T04:42:02.766Z,1019.17
2018-01-11T04:43:30.147Z,1019.18
2018-01-11T04:44:57.073Z,1019.20
2018-01-11T04:46:24.392Z,1019.22
2018-01-11T04:47:51.430Z,1019.25
2018-01-11T04:49:18.624Z,1019.27
2018-01-11T04:50:45.735Z,1019.28
2018-01-11T04:52:12.936Z,1019.29
2018-01-11T04:53:40.305Z,1019.29
2018-01-11T04:55:07.721Z,1019.30
2018-01-11T04:56:34.549Z,1019.31
2018-01-11T04:58:01.845Z,1019.34
2018-01-11T04:59:29.019Z,1019.34
2018-01-11T05:00:56.243Z,1019.35
2018-01-11T05:02:22.985Z,1019.35
2018-01-11T05:03:50.181Z,1019.35
2018-01-11T05:05:17.072Z,1019.33
2018-01-11T05:06:44.217Z,1019.36
2018-01-11T05:08:11.798Z,1019.38
2018-01-11T05:09:38.510Z,1019.38
2018-01-11T05:11:06.111Z,1019.39
2018-01-11T05:12:32.574Z,1019.41
2018-01-11T05:13:59.957Z,1019.39
2018-01-11T05:15:27.073Z,1019.40
2018-01-11T05:16:54.418Z,1019.39
2018-01-11T05:18:21.322Z,1019.40
2018-01-11T05:19:48.166Z,1019.40
2018-01-11T05:21:15.253Z,1019.40
2018-01-11T05:22:42.639Z,1019.40
2018-01-11T05:24:10.159Z,1019.41
2018-01-11T05:25:36.864Z,1019.42
2018-01-11T05:27:03.974Z,1019.43
2018-01-11T05:28:31.185Z,1019.46
2018-01-11T05:29:58.446Z,1019.42
2018-01-11T05:31:25.560Z,1019.44
2018-01-11T05:32:52.722Z,1019.45
2018-01-11T05:34:19.859Z,1019.45
2018-01-11T05:35:46.828Z,1019.47
2018-01-11T05:37:14.637Z,1019.47
2018-01-11T05:38:41.479Z,1019.54
2018-01-11T05:40:08.622Z,1019.57
2018-01-11T05:41:35.811Z,1019.62
2018-01-11T05:43:02.884Z,1019.61
2018-01-11T05:44:30.007Z,1019.60
2018-01-11T05:45:57.183Z,1019.58
2018-01-11T05:47:24.126Z,1019.59
2018-01-11T05:48:51.357Z,1019.59
2018-01-11T05:50:18.268Z,1019.63
2018-01-11T05:51:45.287Z,1019.66
2018-01-11T05:53:12.840Z,1019.68
2018-01-11T05:54:40.166Z,1019.69
2018-01-11T05:56:06.884Z,1019.68
2018-01-11T05:57:34.053Z,1019.70
2018-01-11T05:59:01.367Z,1019.68
2018-01-11T06:00:28.552Z,1019.71
2018-01-11T06:01:55.322Z,1019.71
2018-01-11T06:03:22.470Z,1019.73
2018-01-11T06:04:49.732Z,1019.73
2018-01-11T06:06:16.630Z,1019.74
2018-01-11T06:07:43.933Z,1019.73
2018-01-11T06:09:11.316Z,1019.72
2018-01-11T06:10:38.569Z,1019.72
2018-01-11T06:12:05.585Z,1019.74
2018-01-11T06:13:32.892Z,1019.75
2018-01-11T06:15:00.048Z,1019.79
2018-01-11T06:16:27.300Z,1019.79
2018-01-11T06:17:54.112Z,1019.82
2018-01-11T06:19:21.231Z,1019.85
2018-01-11T06:20:48.400Z,1019.87
2018-01-11T06:22:15.489Z,1019.91
2018-01-11T06:23:42.800Z,1019.93
2018-01-11T06:25:10.027Z,1019.95
2018-01-11T06:26:37.310Z,1019.95
2018-01-11T06:28:04.109Z,1019.95
2018-01-11T06:29:31.271Z,1019.92
2018-01-11T06:30:58.421Z,1019.93
2018-01-11T06:32:25.838Z,1019.94
2018-01-11T06:33:52.801Z,1019.96
2018-01-11T06:35:19.814Z,1019.99
2018-01-11T06:36:46.914Z,1020.00
2018-01-11T06:38:14.223Z,1020.01
2018-01-11T06:39:41.533Z,1020.03
2018-01-11T06:41:08.753Z,1020.03
2018-01-11T06:42:36.214Z,1020.04
2018-01-11T06:44:03.285Z,1020.02
2018-01-11T06:45:30.358Z,1020.03
2018-01-11T06:46:57.748Z,1020.06
2018-01-11T06:48:24.775Z,1020.09
2018-01-11T06:49:51.906Z,1020.10
2018-01-11T06:51:19.122Z,1020.11
2018-01-11T06:52:46.295Z,1020.11
2018-01-11T06:54:13.484Z,1020.13
2018-01-11T06:55:40.741Z,1020.11
2018-01-11T06:57:08.115Z,1020.12
2018-01-11T06:58:35.295Z,1020.13
2018-01-11T07:00:02.384Z,1020.16
2018-01-11T07:01:29.523Z,1020.17
2018-01-11T07:02:56.756Z,1020.17
2018-01-11T07:04:23.843Z,1020.20
2018-01-11T07:05:51.168Z,1020.20
2018-01-11T07:07:18.211Z,1020.22
2018-01-11T07:08:45.293Z,1020.20
2018-01-11T07:10:12.255Z,1020.23
2018-01-11T07:11:39.345Z,1020.24
2018-01-11T07:13:06.883Z,1020.23
2018-01-11T07:14:33.886Z,1020.23
2018-01-11T07:16:00.955Z,1020.24
2018-01-11T07:17:28.022Z,1020.25
2018-01-11T07:18:55.169Z,1020.26
2018-01-11T07:20:22.420Z,1020.29
2018-01-11T07:21:49.590Z,1020.31
2018-01-11T07:23:16.829Z,1020.35
2018-01-11T07:24:44.069Z,1020.37
2018-01-11T07:26:11.097Z,1020.35
2018-01-11T07:27:38.471Z,1020.36
2018-01-11T07:29:05.776Z,1020.39
2018-01-11T07:30:32.967Z,1020.40
2018-01-11T07:32:00.087Z,1020.42
2018-01-11T07:33:27.399Z,1020.43
2018-01-11T07:34:54.422Z,1020.44
2018-01-11T07:36:21.482Z,1020.47
2018-01-11T07:37:48.684Z,1020.48
2018-01-11T07:39:15.707Z,1020.47
2018-01-11T07:40:43.107Z,1020.48
2018-01-11T07:42:10.296Z,1020.55
2018-01-11T07:43:37.386Z,1020.49
2018-01-11T07:45:04.677Z,1020.50
2018-01-11T07:46:31.940Z,1020.48
2018-01-11T07:47:59.332Z,1020.48
2018-01-11T07:49:26.213Z,1020.49
2018-01-11T07:50:53.325Z,1020.49
2018-01-11T07:52:20.491Z,1020.50
2018-01-11T07:53:47.699Z,1020.51
2018-01-11T07:55:14.753Z,1020.52
2018-01-11T07:56:42.194Z,1020.51
2018-01-11T07:58:09.674Z,1020.51
2018-01-11T07:59:36.646Z,1020.53
2018-01-11T08:01:03.564Z,1020.55
2018-01-11T08:02:30.798Z,1020.57
2018-01-11T08:03:58.116Z,1020.59
2018-01-11T08:05:25.363Z,1020.61
2018-01-11T08:06:52.624Z,1020.63
2018-01-11T08:08:19.816Z,1020.65
2018-01-11T08:09:47.177Z,1020.66
2018-01-11T08:11:14.317Z,1020.69
2018-01-11T08:12:41.427Z,1020.72
2018-01-11T08:14:08.984Z,1020.74
2018-01-11T08:15:36.132Z,1020.74
2018-01-11T08:17:03.185Z,1020.76
2018-01-11T08:18:30.256Z,1020.76
2018-01-11T08:19:57.523Z,1020.75
2018-01-11T08:21:24.875Z,1020.77
2018-01-11T08:22:52.040Z,1020.77
2018-01-11T08:24:19.218Z,1020.78
2018-01-11T08:25:46.272Z,1020.81
2018-01-11T08:27:13.584Z,1020.80
2018-01-11T08:28:40.775Z,1020.81
2018-01-11T08:30:07.951Z,1020.82
2018-01-11T08:31:34.943Z,1020.83
2018-01-11T08:33:02.050Z,1020.84
2018-01-11T08:34:29.297Z,1020.84
2018-01-11T08:35:56.575Z,1020.86
2018-01-11T08:37:23.981Z,1020.88
2018-01-11T08:38:51.147Z,1020.89
2018-01-11T08:40:18.437Z,1020.91
2018-01-11T08:41:45.462Z,1020.90
2018-01-11T08:43:12.673Z,1020.93
2018-01-11T08:44:40.054Z,1020.91
2018-01-11T08:46:07.412Z,1020.91
2018-01-11T08:47:34.472Z,1020.92
2018-01-11T08:49:01.555Z,1020.91
2018-01-11T08:50:28.645Z,1020.92
2018-01-11T08:51:55.933Z,1020.93
2018-01-11T08:53:23.134Z,1020.95
2018-01-11T08:54:50.142Z,1020.96
2018-01-11T08:56:17.137Z,1020.96
2018-01-11T08:57:44.511Z,1020.99
2018-01-11T08:59:11.618Z,1021.01
2018-01-11T09:00:39.051Z,1021.02
2018-01-11T09:02:06.241Z,1021.04
2018-01-11T09:03:33.309Z,1021.01
2018-01-11T09:05:00.459Z,1021.00
2018-01-11T09:06:27.633Z,1021.01
2018-01-11T09:07:54.735Z,1021.01
2018-01-11T09:09:21.998Z,1021.02
2018-01-11T09:10:49.143Z,1021.02
2018-01-11T09:12:16.173Z,1021.06
2018-01-11T09:13:43.675Z,1021.05
2018-01-11T09:15:10.931Z,1021.04
2018-01-11T09:16:38.186Z,1021.06
2018-01-11T09:18:05.181Z,1021.06
2018-01-11T09:19:32.390Z,1021.08
2018-01-11T09:20:59.444Z,1021.08
2018-01-11T09:22:26.603Z,1021.08
2018-01-11T09:23:53.787Z,1021.08
2018-01-11T09:25:20.937Z,1021.08
2018-01-11T09:26:48.040Z,1021.07
2018-01-11T09:28:15.262Z,1021.10
2018-01-11T09:29:42.315Z,1021.11
2018-01-11T09:31:09.579Z,1021.12
2018-01-11T09:32:36.862Z,1021.13
2018-01-11T09:34:04.117Z,1021.13
2018-01-11T09:35:31.501Z,1021.16
2018-01-11T09:36:58.554Z,1021.16
2018-01-11T09:38:25.990Z,1021.18
2018-01-11T09:39:52.978Z,1021.18
2018-01-11T09:41:19.991Z,1021.17
2018-01-11T09:42:47.326Z,1021.16
2018-01-11T09:44:14.375Z,1021.18
2018-01-11T09:45:41.669Z,1021.18
2018-01-11T09:47:09.198Z,1021.18
2018-01-11T09:48:36.729Z,1021.18
2018-01-11T09:50:03.727Z,1021.19
2018-01-11T09:51:30.961Z,1021.17
2018-01-11T09:52:58.051Z,1021.14
2018-01-11T09:54:25.096Z,1021.13
2018-01-11T09:55:52.333Z,1021.12
2018-01-11T09:57:19.404Z,1021.11
2018-01-11T09:58:46.622Z,1021.11
2018-01-11T10:00:13.793Z,1021.11
2018-01-11T10:01:41.336Z,1021.09
2018-01-11T10:03:08.581Z,1021.10
2018-01-11T10:04:35.779Z,1021.10
2018-01-11T10:06:02.908Z,1021.08
2018-01-11T10:07:30.126Z,1021.07
2018-01-11T10:08:57.629Z,1021.04
2018-01-11T10:10:24.768Z,1021.04
2018-01-11T10:11:51.791Z,1021.03
2018-01-11T10:13:19.126Z,1021.01
2018-01-11T10:14:46.278Z,1021.02
2018-01-11T10:16:13.581Z,1021.01
2018-01-11T10:17:48.949Z,1021.01
2018-01-11T10:19:08.201Z,1021.03
2018-01-11T10:20:35.802Z,1021.03
2018-01-11T10:22:02.297Z,1021.02
2018-01-11T10:23:29.500Z,1021.03
2018-01-11T10:24:56.990Z,1021.03
2018-01-11T10:26:23.926Z,1021.04
2018-01-11T10:27:51.170Z,1021.06
2018-01-11T10:29:18.442Z,1021.07
2018-01-11T10:30:45.537Z,1021.05
2018-01-11T10:32:12.751Z,1021.05
2018-01-11T10:33:39.965Z,1021.04
2018-01-11T10:35:07.259Z,1021.05
2018-01-11T10:36:34.426Z,1021.08
2018-01-11T10:38:01.554Z,1021.07
2018-01-11T10:39:28.619Z,1021.10
2018-01-11T10:40:55.808Z,1021.12
2018-01-11T10:42:23.065Z,1021.11
2018-01-11T10:43:50.384Z,1021.13
2018-01-11T10:45:17.312Z,1021.13
2018-01-11T10:46:44.467Z,1021.13
2018-01-11T10:48:11.846Z,1021.15
2018-01-11T10:49:39.162Z,1021.14
2018-01-11T10:51:06.580Z,1021.13
2018-01-11T10:52:33.842Z,1021.13
2018-01-11T10:54:01.085Z,1021.13
2018-01-11T10:55:28.238Z,1021.12
2018-01-11T10:56:55.424Z,1021.13
2018-01-11T10:58:22.762Z,1021.12
2018-01-11T10:59:50.019Z,1021.10
2018-01-11T11:01:17.158Z,1021.11
2018-01-11T11:02:44.360Z,1021.13
2018-01-11T11:04:11.789Z,1021.12
2018-01-11T11:05:39.027Z,1021.11
2018-01-11T11:07:06.365Z,1021.10
2018-01-11T11:08:33.585Z,1021.09
2018-01-11T11:10:00.846Z,1021.08
2018-01-11T11:11:28.085Z,1021.09
2018-01-11T11:12:55.398Z,1021.11
2018-01-11T11:14:22.596Z,1021.11
2018-01-11T11:15:49.793Z,1021.13
2018-01-11T11:17:16.929Z,1021.15
2018-01-11T11:18:44.332Z,1021.16
2018-01-11T11:20:11.563Z,1021.13
2018-01-11T11:21:38.695Z,1021.15
2018-01-11T11:23:06.175Z,1021.14
2018-01-11T11:24:33.497Z,1021.15
2018-01-11T11:26:00.099Z,1021.17
2018-01-11T11:27:27.258Z,1021.15
2018-01-11T11:28:54.594Z,1021.18
2018-01-11T11:30:21.810Z,1021.21
2018-01-11T11:31:49.026Z,1021.21
2018-01-11T11:33:16.049Z,1021.23
2018-01-11T11:34:43.418Z,1021.23
2018-01-11T11:36:10.705Z,1021.20
2018-01-11T11:37:37.966Z,1021.21
2018-01-11T11:39:05.058Z,1021.22
2018-01-11T11:40:32.380Z,1021.22
2018-01-11T11:41:59.620Z,1021.23
2018-01-11T11:43:26.805Z,1021.24
2018-01-11T11:44:54.019Z,1021.24
2018-01-11T11:46:21.102Z,1021.24
2018-01-11T11:47:48.282Z,1021.24
2018-01-11T11:49:15.327Z,1021.27
2018-01-11T11:50:42.603Z,1021.27
2018-01-11T11:52:09.689Z,1021.30
2018-01-11T11:53:47.041Z,1021.30
2018-01-11T11:55:04.203Z,1021.28
2018-01-11T11:56:31.491Z,1021.28
2018-01-11T11:57:58.913Z,1021.27
2018-01-11T11:59:26.363Z,1021.26
2018-01-11T12:00:53.722Z,1021.25
2018-01-11T12:02:21.001Z,1021.27
2018-01-11T12:03:47.913Z,1021.27
2018-01-11T12:05:14.932Z,1021.29
2018-01-11T12:06:42.237Z,1021.30
2018-01-11T12:08:09.596Z,1021.29
2018-01-11T12:09:36.966Z,1021.29
2018-01-11T12:11:04.282Z,1021.30
2018-01-11T12:12:31.572Z,1021.31
2018-01-11T12:13:58.537Z,1021.30
2018-01-11T12:15:25.503Z,1021.30
2018-01-11T12:16:52.954Z,1021.33
2018-01-11T12:18:20.040Z,1021.33
2018-01-11T12:19:47.152Z,1021.34
2018-01-11T12:21:14.454Z,1021.36
2018-01-11T12:22:41.545Z,1021.36
2018-01-11T12:24:08.693Z,1021.40
2018-01-11T12:25:36.044Z,1021.41
2018-01-11T12:27:03.259Z,1021.41
2018-01-11T12:28:30.425Z,1021.42
2018-01-11T12:29:57.836Z,1021.46
2018-01-11T12:31:25.200Z,1021.49
2018-01-11T12:32:52.314Z,1021.51
2018-01-11T12:34:19.551Z,1021.52
2018-01-11T12:35:46.811Z,1021.53
2018-01-11T12:37:14.054Z,1021.54
2018-01-11T12:38:41.524Z,1021.53
2018-01-11T12:40:08.945Z,1021.56
2018-01-11T12:41:36.140Z,1021.55
2018-01-11T12:43:03.339Z,1021.52
2018-01-11T12:44:30.522Z,1021.52
2018-01-11T12:45:57.800Z,1021.50
2018-01-11T12:47:25.018Z,1021.48
2018-01-11T12:48:52.248Z,1021.47
2018-01-11T12:50:19.214Z,1021.47
2018-01-11T12:51:46.442Z,1021.49
2018-01-11T12:53:13.619Z,1021.47
2018-01-11T12:54:40.959Z,1021.47
2018-01-11T12:56:08.309Z,1021.48
2018-01-11T12:57:35.810Z,1021.46
2018-01-11T12:59:02.756Z,1021.46
2018-01-11T13:00:29.911Z,1021.48
2018-01-11T13:01:57.138Z,1021.47
2018-01-11T13:03:24.181Z,1021.50
2018-01-11T13:04:51.534Z,1021.51
2018-01-11T13:06:18.714Z,1021.48
2018-01-11T13:07:46.054Z,1021.47
2018-01-11T13:09:13.106Z,1021.48
2018-01-11T13:10:40.448Z,1021.49
2018-01-11T13:12:07.899Z,1021.48
2018-01-11T13:13:34.880Z,1021.49
2018-01-11T13:15:01.827Z,1021.50
2018-01-11T13:16:29.265Z,1021.49
2018-01-11T13:17:56.576Z,1021.51
2018-01-11T13:19:23.832Z,1021.49
2018-01-11T13:20:51.187Z,1021.52
2018-01-11T13:22:18.241Z,1021.54
2018-01-11T13:23:45.421Z,1021.55
2018-01-11T13:25:12.501Z,1021.54
2018-01-11T13:26:39.926Z,1021.55
2018-01-11T13:28:07.073Z,1021.56
2018-01-11T13:29:34.469Z,1021.59
2018-01-11T13:31:01.691Z,1021.65
2018-01-11T13:32:29.139Z,1021.67
2018-01-11T13:33:56.385Z,1021.68
2018-01-11T13:35:23.194Z,1021.69
2018-01-11T13:36:50.551Z,1021.70
2018-01-11T13:38:17.471Z,1021.73
2018-01-11T13:39:44.650Z,1021.73
2018-01-11T13:41:11.849Z,1021.75
2018-01-11T13:42:39.239Z,1021.78
2018-01-11T13:44:06.258Z,1021.81
2018-01-11T13:45:33.575Z,1021.84
2018-01-11T13:47:00.841Z,1021.88
2018-01-11T13:48:28.347Z,1021.89
2018-01-11T13:49:55.512Z,1021.91
2018-01-11T13:51:22.588Z,1021.93
2018-01-11T13:52:49.661Z,1021.96
2018-01-11T13:54:16.941Z,1022.00
2018-01-11T13:55:44.277Z,1022.02
2018-01-11T13:57:11.657Z,1022.01
2018-01-11T13:58:39.002Z,1022.02
2018-01-11T14:00:06.439Z,1022.03
2018-01-11T14:01:33.349Z,1022.07
2018-01-11T14:03:00.568Z,1022.08
2018-01-11T14:04:27.792Z,1022.11
2018-01-11T14:05:55.096Z,1022.14
2018-01-11T14:07:22.159Z,1022.16
2018-01-11T14:08:49.036Z,1022.20
2018-01-11T14:10:16.197Z,1022.24
2018-01-11T14:11:43.646Z,1022.27
2018-01-11T14:13:11.261Z,1022.30
2018-01-11T14:14:38.258Z,1022.30
2018-01-11T14:16:05.484Z,1022.34
2018-01-11T14:17:32.684Z,1022.36
2018-01-11T14:18:59.931Z,1022.37
2018-01-11T14:20:26.958Z,1022.38
2018-01-11T14:21:53.946Z,1022.39
2018-01-11T14:23:21.342Z,1022.41
2018-01-11T14:24:48.263Z,1022.44
2018-01-11T14:26:15.461Z,1022.45
2018-01-11T14:27:42.826Z,1022.45
2018-01-11T14:29:10.423Z,1022.47
2018-01-11T14:30:45.072Z,1022.46
2018-01-11T14:32:04.376Z,1022.47
2018-01-11T14:33:31.757Z,1022.47
2018-01-11T14:34:59.103Z,1022.49
2018-01-11T14:36:26.365Z,1022.50
2018-01-11T14:37:53.460Z,1022.51
2018-01-11T14:39:20.588Z,1022.50
2018-01-11T14:40:47.912Z,1022.51
2018-01-11T14:42:14.819Z,1022.51
2018-01-11T14:43:42.247Z,1022.54
2018-01-11T14:45:09.904Z,1022.56
2018-01-11T14:46:36.815Z,1022.57
2018-01-11T14:48:03.838Z,1022.57
2018-01-11T14:49:31.034Z,1022.57
2018-01-11T14:50:58.413Z,1022.57
2018-01-11T14:52:25.399Z,1022.54
2018-01-11T14:53:52.447Z,1022.55
2018-01-11T14:55:19.638Z,1022.52
2018-01-11T14:56:46.179Z,1022.53
2018-01-11T14:58:13.427Z,1022.54
2018-01-11T14:59:40.431Z,1022.57
2018-01-11T15:01:07.665Z,1022.57
2018-01-11T15:02:34.853Z,1022.60
2018-01-11T15:04:01.972Z,1022.59
2018-01-11T15:05:29.415Z,1022.60
2018-01-11T15:06:56.407Z,1022.60
2018-01-11T15:08:23.431Z,1022.61
2018-01-11T15:09:50.520Z,1022.62
2018-01-11T15:11:17.658Z,1022.64
2018-01-11T15:12:44.921Z,1022.67
2018-01-11T15:14:12.215Z,1022.70
2018-01-11T15:15:39.488Z,1022.70
2018-01-11T15:17:06.917Z,1022.75
2018-01-11T15:18:33.801Z,1022.76
2018-01-11T15:20:00.948Z,1022.78
2018-01-11T15:21:28.397Z,1022.84
2018-01-11T15:22:55.182Z,1022.85
2018-01-11T15:24:22.335Z,1022.86
2018-01-11T15:25:49.516Z,1022.87
2018-01-11T15:27:16.545Z,1022.89
2018-01-11T15:28:44.049Z,1022.92
2018-01-11T15:30:11.135Z,1022.94
2018-01-11T15:31:38.463Z,1022.93
2018-01-11T15:33:06.565Z,1022.94
2018-01-11T15:34:32.773Z,1022.94
2018-01-11T15:36:00.007Z,1022.98
2018-01-11T15:37:26.982Z,1023.01
2018-01-11T15:38:54.358Z,1023.03
2018-01-11T15:40:21.201Z,1023.06
2018-01-11T15:41:48.469Z,1023.06
2018-01-11T15:43:15.550Z,1023.08
2018-01-11T15:44:42.839Z,1023.11
2018-01-11T15:46:09.860Z,1023.11
2018-01-11T15:47:39.911Z,1023.12
2018-01-11T15:49:04.275Z,1023.12
2018-01-11T15:50:31.462Z,1023.14
2018-01-11T15:51:58.598Z,1023.13
2018-01-11T15:53:25.657Z,1023.15
2018-01-11T15:54:52.918Z,1023.14
2018-01-11T15:56:20.156Z,1023.12
2018-01-11T15:57:47.205Z,1023.15
2018-01-11T15:59:14.346Z,1023.18
2018-01-11T16:00:41.715Z,1023.22
2018-01-11T16:02:08.809Z,1023.22
2018-01-11T16:03:36.420Z,1023.24
2018-01-11T16:05:03.513Z,1023.25
2018-01-11T16:06:30.776Z,1023.27
2018-01-11T16:07:57.862Z,1023.29
2018-01-11T16:09:25.240Z,1023.33
2018-01-11T16:10:52.516Z,1023.36
2018-01-11T16:12:19.721Z,1023.38
2018-01-11T16:13:46.871Z,1023.40
2018-01-11T16:15:14.150Z,1023.42
2018-01-11T16:16:41.205Z,1023.43
2018-01-11T16:18:08.323Z,1023.45
2018-01-11T16:19:35.749Z,1023.46
2018-01-11T16:21:02.922Z,1023.48
2018-01-11T16:22:30.100Z,1023.50
2018-01-11T16:23:57.361Z,1023.53
2018-01-11T16:25:24.329Z,1023.55
2018-01-11T16:26:51.453Z,1023.55
2018-01-11T16:28:18.588Z,1023.57
2018-01-11T16:29:45.534Z,1023.57
2018-01-11T16:31:12.813Z,1023.58
2018-01-11T16:32:40.414Z,1023.55
2018-01-11T16:34:07.561Z,1023.54
2018-01-11T16:35:34.542Z,1023.54
2018-01-11T16:37:01.688Z,1023.54
2018-01-11T16:38:28.972Z,1023.54
2018-01-11T16:39:56.141Z,1023.53
2018-01-11T16:41:23.184Z,1023.53
2018-01-11T16:42:50.250Z,1023.55
2018-01-11T16:44:17.555Z,1023.56
2018-01-11T16:45:44.727Z,1023.56
2018-01-11T16:47:11.965Z,1023.58
2018-01-11T16:48:39.574Z,1023.60
2018-01-11T16:50:06.509Z,1023.62
2018-01-11T16:51:33.462Z,1023.67
2018-01-11T16:53:00.554Z,1023.69
2018-01-11T16:54:27.838Z,1023.71
2018-01-11T16:55:54.842Z,1023.73
2018-01-11T16:57:22.062Z,1023.76
2018-01-11T16:58:49.174Z,1023.77
2018-01-11T17:00:16.125Z,1023.81
2018-01-11T17:01:43.382Z,1023.85
2018-01-11T17:03:10.553Z,1023.86
2018-01-11T17:04:37.420Z,1023.90
2018-01-11T17:06:04.636Z,1023.93
2018-01-11T17:07:31.820Z,1023.95
2018-01-11T17:08:58.811Z,1023.96
2018-01-11T17:10:25.856Z,1023.99
2018-01-11T17:11:52.899Z,1024.00
2018-01-11T17:13:19.889Z,1024.06
2018-01-11T17:14:49.791Z,1024.06
2018-01-11T17:16:14.218Z,1024.13
2018-01-11T17:17:41.668Z,1024.13
2018-01-11T17:19:08.761Z,1024.17
2018-01-11T17:20:35.833Z,1024.20
2018-01-11T17:22:03.074Z,1024.22
2018-01-11T17:23:30.386Z,1024.21
2018-01-11T17:24:57.679Z,1024.22
2018-01-11T17:26:24.995Z,1024.17
2018-01-11T17:27:52.229Z,1024.18
2018-01-11T17:29:19.165Z,1024.20
2018-01-11T17:30:46.354Z,1024.24
2018-01-11T17:32:13.520Z,1024.25
2018-01-11T17:33:41.100Z,1024.24